Accueil
METAR-TAF:

METAR-TAF

Aéroports :

Aéroport international de Canton-Baiyun

Canton, Chine

latitude: 23-10N, longitude: 113-20E, altitude: 8 m

Observation

Le bulletin a été fait il y a 16 minutes, à 07:00 UTC
Vent 8 kt de sud, variant entre sud/sud-est et sud-ouest
Température 32°C
Humidité 52%
Pression 1009 hPa
Visibilité 10 km ou plus
Nuages fragmentés à une hauteur de 4600 ft

METAR: ZGGG 130700Z 19004MPS 150V230 9999 BKN046 32/21 Q1009 NOSIG

Heure: 15:16 (07:16 UTC)

Prévision

Le bulletin a été fait il y a 4 heures et 4 minutes, à 03:12 UTC
Prévision valable du 13 à 06 UTC au 14 à 06 UTC
Vent 6 kt de sud/sud-est
Visibilité: 8000 m
Quelques nuages à une hauteur de 4000 ft

TAF: ZGGG 130312Z 1306/1406 15003MPS 8000 FEW040 TX33/1307Z TN25/1322Z

Observations et prévisions météorologiques de plus de 4000 aéroports (messages METAR et TAF).

Les stations disponibles sont représentées par des disques jaunes et rouges sur la carte.

Passer la souris dessus pour voir le nom de la station.

Cliquer dessus pour voir les observations et prévisions météorologiques.

Pour changer de carte: cliquez sur les boutons verts avec une croix noire pour zoomer, sur le bouton vert avec un tiret pour effectuer un zoom arrière, ou sur les flèches vertes pour les cartes adjacentes.


METAR-TAF: